sensor_id;sensor_type;location;lat;lon;timestamp;P1;durP1;ratioP1;P2;durP2;ratioP2
11797;SDS011;5956;51.428;6.682;2023-05-16T00:00:45;3.87;;;2.87;;
11797;SDS011;5956;51.428;6.682;2023-05-16T00:03:12;2.60;;;2.40;;
11797;SDS011;5956;51.428;6.682;2023-05-16T00:05:39;4.47;;;2.60;;
11797;SDS011;5956;51.428;6.682;2023-05-16T00:08:05;2.93;;;2.07;;
11797;SDS011;5956;51.428;6.682;2023-05-16T00:10:32;2.50;;;1.90;;
11797;SDS011;5956;51.428;6.682;2023-05-16T00:12:58;3.80;;;2.20;;
11797;SDS011;5956;51.428;6.682;2023-05-16T00:15:27;4.07;;;2.40;;
11797;SDS011;5956;51.428;6.682;2023-05-16T00:17:54;3.53;;;1.80;;
11797;SDS011;5956;51.428;6.682;2023-05-16T00:20:23;4.17;;;2.27;;
11797;SDS011;5956;51.428;6.682;2023-05-16T00:22:50;2.97;;;2.07;;
11797;SDS011;5956;51.428;6.682;2023-05-16T00:25:17;6.27;;;2.57;;
11797;SDS011;5956;51.428;6.682;2023-05-16T00:27:43;4.43;;;2.60;;
11797;SDS011;5956;51.428;6.682;2023-05-16T00:30:10;6.73;;;2.80;;
11797;SDS011;5956;51.428;6.682;2023-05-16T00:32:38;5.83;;;2.73;;
11797;SDS011;5956;51.428;6.682;2023-05-16T00:35:05;5.37;;;2.70;;
11797;SDS011;5956;51.428;6.682;2023-05-16T00:37:34;4.97;;;2.73;;
11797;SDS011;5956;51.428;6.682;2023-05-16T00:40:01;4.73;;;2.60;;
11797;SDS011;5956;51.428;6.682;2023-05-16T00:42:27;4.63;;;2.40;;
11797;SDS011;5956;51.428;6.682;2023-05-16T00:44:53;6.23;;;2.90;;
11797;SDS011;5956;51.428;6.682;2023-05-16T00:47:20;4.27;;;2.90;;
11797;SDS011;5956;51.428;6.682;2023-05-16T00:49:48;7.07;;;2.53;;
11797;SDS011;5956;51.428;6.682;2023-05-16T00:52:14;4.80;;;2.57;;
11797;SDS011;5956;51.428;6.682;2023-05-16T00:54:41;4.53;;;2.33;;
11797;SDS011;5956;51.428;6.682;2023-05-16T00:57:07;5.97;;;2.60;;
11797;SDS011;5956;51.428;6.682;2023-05-16T00:59:34;5.87;;;2.60;;
11797;SDS011;5956;51.428;6.682;2023-05-16T01:02:00;6.17;;;2.47;;
11797;SDS011;5956;51.428;6.682;2023-05-16T01:04:27;5.67;;;2.80;;
11797;SDS011;5956;51.428;6.682;2023-05-16T01:06:56;6.90;;;2.90;;
11797;SDS011;5956;51.428;6.682;2023-05-16T01:09:22;6.07;;;3.13;;
11797;SDS011;5956;51.428;6.682;2023-05-16T01:11:50;3.47;;;2.47;;
11797;SDS011;5956;51.428;6.682;2023-05-16T01:14:19;5.93;;;3.13;;
11797;SDS011;5956;51.428;6.682;2023-05-16T01:16:49;6.80;;;2.90;;
11797;SDS011;5956;51.428;6.682;2023-05-16T01:19:20;9.03;;;2.80;;
11797;SDS011;5956;51.428;6.682;2023-05-16T01:21:58;6.60;;;2.57;;
11797;SDS011;5956;51.428;6.682;2023-05-16T01:24:30;6.00;;;2.63;;
11797;SDS011;5956;51.428;6.682;2023-05-16T01:26:59;4.40;;;2.37;;
11797;SDS011;5956;51.428;6.682;2023-05-16T01:29:27;6.57;;;2.73;;
11797;SDS011;5956;51.428;6.682;2023-05-16T01:31:53;5.13;;;2.90;;
11797;SDS011;5956;51.428;6.682;2023-05-16T01:34:19;8.43;;;3.40;;
11797;SDS011;5956;51.428;6.682;2023-05-16T01:36:47;8.13;;;3.10;;
11797;SDS011;5956;51.428;6.682;2023-05-16T01:39:18;9.80;;;3.00;;
11797;SDS011;5956;51.428;6.682;2023-05-16T01:41:46;10.47;;;3.27;;
11797;SDS011;5956;51.428;6.682;2023-05-16T01:44:19;8.43;;;3.10;;
11797;SDS011;5956;51.428;6.682;2023-05-16T01:46:47;10.07;;;3.50;;
11797;SDS011;5956;51.428;6.682;2023-05-16T01:49:15;7.77;;;3.37;;
11797;SDS011;5956;51.428;6.682;2023-05-16T01:51:44;9.10;;;3.30;;
11797;SDS011;5956;51.428;6.682;2023-05-16T01:54:14;7.27;;;2.87;;
11797;SDS011;5956;51.428;6.682;2023-05-16T01:56:43;7.70;;;3.30;;
11797;SDS011;5956;51.428;6.682;2023-05-16T01:59:12;11.47;;;4.03;;
11797;SDS011;5956;51.428;6.682;2023-05-16T02:01:40;14.40;;;3.23;;
11797;SDS011;5956;51.428;6.682;2023-05-16T02:04:06;11.80;;;3.33;;
11797;SDS011;5956;51.428;6.682;2023-05-16T02:06:33;9.20;;;3.20;;
11797;SDS011;5956;51.428;6.682;2023-05-16T02:09:01;10.40;;;3.93;;
11797;SDS011;5956;51.428;6.682;2023-05-16T02:11:27;11.07;;;4.00;;
11797;SDS011;5956;51.428;6.682;2023-05-16T02:13:54;11.40;;;3.90;;
11797;SDS011;5956;51.428;6.682;2023-05-16T02:16:20;8.43;;;3.13;;
11797;SDS011;5956;51.428;6.682;2023-05-16T02:18:48;11.40;;;3.77;;
11797;SDS011;5956;51.428;6.682;2023-05-16T02:21:14;12.73;;;3.40;;
11797;SDS011;5956;51.428;6.682;2023-05-16T02:23:41;14.30;;;3.97;;
11797;SDS011;5956;51.428;6.682;2023-05-16T02:26:08;11.20;;;3.67;;
11797;SDS011;5956;51.428;6.682;2023-05-16T02:28:35;10.27;;;3.67;;
11797;SDS011;5956;51.428;6.682;2023-05-16T02:31:01;12.30;;;3.67;;
11797;SDS011;5956;51.428;6.682;2023-05-16T02:33:28;8.17;;;3.30;;
11797;SDS011;5956;51.428;6.682;2023-05-16T02:35:56;9.17;;;3.47;;
11797;SDS011;5956;51.428;6.682;2023-05-16T02:38:22;15.40;;;3.83;;
11797;SDS011;5956;51.428;6.682;2023-05-16T02:40:49;11.83;;;3.67;;
11797;SDS011;5956;51.428;6.682;2023-05-16T02:43:15;14.90;;;4.10;;
11797;SDS011;5956;51.428;6.682;2023-05-16T02:45:42;14.30;;;3.47;;
11797;SDS011;5956;51.428;6.682;2023-05-16T02:48:09;12.00;;;3.70;;
11797;SDS011;5956;51.428;6.682;2023-05-16T02:50:36;16.20;;;3.67;;
11797;SDS011;5956;51.428;6.682;2023-05-16T02:53:05;14.03;;;4.03;;
11797;SDS011;5956;51.428;6.682;2023-05-16T02:55:32;13.67;;;3.17;;
11797;SDS011;5956;51.428;6.682;2023-05-16T02:57:58;9.53;;;2.80;;
11797;SDS011;5956;51.428;6.682;2023-05-16T03:00:25;13.23;;;3.37;;
11797;SDS011;5956;51.428;6.682;2023-05-16T03:02:51;10.03;;;3.50;;
11797;SDS011;5956;51.428;6.682;2023-05-16T03:05:18;11.23;;;3.83;;
11797;SDS011;5956;51.428;6.682;2023-05-16T03:07:44;13.70;;;3.80;;
11797;SDS011;5956;51.428;6.682;2023-05-16T03:10:13;10.30;;;4.03;;
11797;SDS011;5956;51.428;6.682;2023-05-16T03:12:39;10.33;;;3.10;;
11797;SDS011;5956;51.428;6.682;2023-05-16T03:15:06;15.50;;;4.37;;
11797;SDS011;5956;51.428;6.682;2023-05-16T03:17:33;13.50;;;4.03;;
11797;SDS011;5956;51.428;6.682;2023-05-16T03:20:00;9.23;;;2.90;;
11797;SDS011;5956;51.428;6.682;2023-05-16T03:22:26;14.33;;;3.53;;
11797;SDS011;5956;51.428;6.682;2023-05-16T03:24:52;13.73;;;3.83;;
11797;SDS011;5956;51.428;6.682;2023-05-16T03:27:21;15.03;;;3.60;;
11797;SDS011;5956;51.428;6.682;2023-05-16T03:29:47;13.53;;;3.70;;
11797;SDS011;5956;51.428;6.682;2023-05-16T03:32:14;13.93;;;4.07;;
11797;SDS011;5956;51.428;6.682;2023-05-16T03:34:40;13.27;;;3.73;;
11797;SDS011;5956;51.428;6.682;2023-05-16T03:37:07;10.77;;;3.10;;
11797;SDS011;5956;51.428;6.682;2023-05-16T03:39:35;10.80;;;3.13;;
11797;SDS011;5956;51.428;6.682;2023-05-16T03:42:01;12.90;;;3.27;;
11797;SDS011;5956;51.428;6.682;2023-05-16T03:44:29;14.60;;;3.47;;
11797;SDS011;5956;51.428;6.682;2023-05-16T03:46:56;10.40;;;2.80;;
11797;SDS011;5956;51.428;6.682;2023-05-16T03:49:26;9.27;;;3.10;;
11797;SDS011;5956;51.428;6.682;2023-05-16T03:51:52;10.57;;;3.33;;
11797;SDS011;5956;51.428;6.682;2023-05-16T03:54:19;10.50;;;3.10;;
11797;SDS011;5956;51.428;6.682;2023-05-16T03:56:46;11.10;;;2.93;;
11797;SDS011;5956;51.428;6.682;2023-05-16T03:59:12;10.47;;;3.03;;
11797;SDS011;5956;51.428;6.682;2023-05-16T04:01:40;11.00;;;3.00;;
11797;SDS011;5956;51.428;6.682;2023-05-16T04:04:06;10.43;;;3.30;;
11797;SDS011;5956;51.428;6.682;2023-05-16T04:06:33;9.47;;;2.87;;
11797;SDS011;5956;51.428;6.682;2023-05-16T04:09:00;11.70;;;3.37;;
11797;SDS011;5956;51.428;6.682;2023-05-16T04:11:26;11.67;;;2.77;;
11797;SDS011;5956;51.428;6.682;2023-05-16T04:13:52;8.73;;;3.37;;
11797;SDS011;5956;51.428;6.682;2023-05-16T04:16:19;12.40;;;3.30;;
11797;SDS011;5956;51.428;6.682;2023-05-16T04:18:47;13.30;;;3.73;;
11797;SDS011;5956;51.428;6.682;2023-05-16T04:21:14;12.60;;;3.47;;
11797;SDS011;5956;51.428;6.682;2023-05-16T04:23:40;15.20;;;3.90;;
11797;SDS011;5956;51.428;6.682;2023-05-16T04:26:07;13.07;;;4.13;;
11797;SDS011;5956;51.428;6.682;2023-05-16T04:28:33;16.13;;;3.20;;
11797;SDS011;5956;51.428;6.682;2023-05-16T04:31:00;9.30;;;3.30;;
11797;SDS011;5956;51.428;6.682;2023-05-16T04:33:27;14.13;;;3.77;;
11797;SDS011;5956;51.428;6.682;2023-05-16T04:35:55;11.97;;;3.10;;
11797;SDS011;5956;51.428;6.682;2023-05-16T04:38:22;12.47;;;3.33;;
11797;SDS011;5956;51.428;6.682;2023-05-16T04:40:48;11.90;;;3.03;;
11797;SDS011;5956;51.428;6.682;2023-05-16T04:43:15;12.93;;;3.30;;
11797;SDS011;5956;51.428;6.682;2023-05-16T04:45:42;9.27;;;2.50;;
11797;SDS011;5956;51.428;6.682;2023-05-16T04:48:09;12.53;;;2.80;;
11797;SDS011;5956;51.428;6.682;2023-05-16T04:50:35;12.20;;;3.03;;
11797;SDS011;5956;51.428;6.682;2023-05-16T04:53:03;8.00;;;2.70;;
11797;SDS011;5956;51.428;6.682;2023-05-16T04:55:30;11.60;;;2.97;;
11797;SDS011;5956;51.428;6.682;2023-05-16T04:57:57;10.13;;;2.80;;
11797;SDS011;5956;51.428;6.682;2023-05-16T05:00:23;8.30;;;3.53;;
11797;SDS011;5956;51.428;6.682;2023-05-16T05:02:51;10.70;;;2.90;;
11797;SDS011;5956;51.428;6.682;2023-05-16T05:05:17;16.73;;;3.47;;
11797;SDS011;5956;51.428;6.682;2023-05-16T05:07:44;7.97;;;2.67;;
11797;SDS011;5956;51.428;6.682;2023-05-16T05:10:12;9.97;;;3.30;;
11797;SDS011;5956;51.428;6.682;2023-05-16T05:12:38;13.47;;;4.50;;
11797;SDS011;5956;51.428;6.682;2023-05-16T05:15:05;9.10;;;3.27;;
11797;SDS011;5956;51.428;6.682;2023-05-16T05:17:32;11.20;;;2.70;;
11797;SDS011;5956;51.428;6.682;2023-05-16T05:19:58;10.07;;;3.13;;
11797;SDS011;5956;51.428;6.682;2023-05-16T05:22:25;12.43;;;3.37;;
11797;SDS011;5956;51.428;6.682;2023-05-16T05:24:51;9.97;;;2.73;;
11797;SDS011;5956;51.428;6.682;2023-05-16T05:27:19;11.73;;;2.93;;
11797;SDS011;5956;51.428;6.682;2023-05-16T05:29:46;7.37;;;2.70;;
11797;SDS011;5956;51.428;6.682;2023-05-16T05:32:12;9.27;;;3.20;;
11797;SDS011;5956;51.428;6.682;2023-05-16T05:34:39;12.00;;;3.43;;
11797;SDS011;5956;51.428;6.682;2023-05-16T05:37:05;8.23;;;2.80;;
11797;SDS011;5956;51.428;6.682;2023-05-16T05:39:31;10.50;;;3.07;;
11797;SDS011;5956;51.428;6.682;2023-05-16T05:41:58;8.37;;;2.57;;
11797;SDS011;5956;51.428;6.682;2023-05-16T05:44:27;10.23;;;3.10;;
11797;SDS011;5956;51.428;6.682;2023-05-16T05:46:54;11.80;;;3.50;;
11797;SDS011;5956;51.428;6.682;2023-05-16T05:49:21;10.97;;;3.77;;
11797;SDS011;5956;51.428;6.682;2023-05-16T05:51:48;10.53;;;3.67;;
11797;SDS011;5956;51.428;6.682;2023-05-16T05:54:16;9.43;;;3.47;;
11797;SDS011;5956;51.428;6.682;2023-05-16T05:56:42;12.77;;;3.40;;
11797;SDS011;5956;51.428;6.682;2023-05-16T05:59:09;9.43;;;3.20;;
11797;SDS011;5956;51.428;6.682;2023-05-16T06:01:37;12.57;;;3.13;;
11797;SDS011;5956;51.428;6.682;2023-05-16T06:04:04;14.00;;;3.43;;
11797;SDS011;5956;51.428;6.682;2023-05-16T06:06:31;9.83;;;3.00;;
11797;SDS011;5956;51.428;6.682;2023-05-16T06:08:57;8.93;;;2.73;;
11797;SDS011;5956;51.428;6.682;2023-05-16T06:11:24;9.47;;;2.93;;
11797;SDS011;5956;51.428;6.682;2023-05-16T06:13:51;8.77;;;3.37;;
11797;SDS011;5956;51.428;6.682;2023-05-16T06:16:18;11.03;;;3.37;;
11797;SDS011;5956;51.428;6.682;2023-05-16T06:18:46;12.93;;;3.37;;
11797;SDS011;5956;51.428;6.682;2023-05-16T06:21:12;9.73;;;3.30;;
11797;SDS011;5956;51.428;6.682;2023-05-16T06:23:39;10.63;;;3.63;;
11797;SDS011;5956;51.428;6.682;2023-05-16T06:26:05;7.73;;;3.03;;
11797;SDS011;5956;51.428;6.682;2023-05-16T06:28:32;11.23;;;3.40;;
11797;SDS011;5956;51.428;6.682;2023-05-16T06:30:59;10.47;;;3.00;;
11797;SDS011;5956;51.428;6.682;2023-05-16T06:33:25;13.30;;;3.53;;
11797;SDS011;5956;51.428;6.682;2023-05-16T06:35:53;12.00;;;2.87;;
11797;SDS011;5956;51.428;6.682;2023-05-16T06:38:20;11.03;;;3.23;;
11797;SDS011;5956;51.428;6.682;2023-05-16T06:40:47;8.90;;;2.97;;
11797;SDS011;5956;51.428;6.682;2023-05-16T06:43:13;12.37;;;3.33;;
11797;SDS011;5956;51.428;6.682;2023-05-16T06:45:40;13.80;;;3.77;;
11797;SDS011;5956;51.428;6.682;2023-05-16T06:48:06;10.37;;;3.33;;
11797;SDS011;5956;51.428;6.682;2023-05-16T06:50:33;10.13;;;3.20;;
11797;SDS011;5956;51.428;6.682;2023-05-16T06:53:01;7.23;;;2.87;;
11797;SDS011;5956;51.428;6.682;2023-05-16T06:55:30;6.93;;;2.60;;
11797;SDS011;5956;51.428;6.682;2023-05-16T06:57:57;9.50;;;3.07;;
11797;SDS011;5956;51.428;6.682;2023-05-16T07:00:23;9.27;;;2.83;;
11797;SDS011;5956;51.428;6.682;2023-05-16T07:02:51;11.00;;;2.97;;
11797;SDS011;5956;51.428;6.682;2023-05-16T07:05:17;6.20;;;2.13;;
11797;SDS011;5956;51.428;6.682;2023-05-16T07:07:44;11.40;;;2.90;;
11797;SDS011;5956;51.428;6.682;2023-05-16T07:10:12;7.57;;;2.27;;
11797;SDS011;5956;51.428;6.682;2023-05-16T07:12:40;5.60;;;1.87;;
11797;SDS011;5956;51.428;6.682;2023-05-16T07:15:07;8.30;;;2.60;;
11797;SDS011;5956;51.428;6.682;2023-05-16T07:17:34;9.03;;;2.73;;
11797;SDS011;5956;51.428;6.682;2023-05-16T07:20:00;9.63;;;2.47;;
11797;SDS011;5956;51.428;6.682;2023-05-16T07:22:27;5.60;;;2.30;;
11797;SDS011;5956;51.428;6.682;2023-05-16T07:24:54;8.47;;;2.50;;
11797;SDS011;5956;51.428;6.682;2023-05-16T07:27:26;8.50;;;2.20;;
11797;SDS011;5956;51.428;6.682;2023-05-16T07:29:52;10.40;;;2.67;;
11797;SDS011;5956;51.428;6.682;2023-05-16T07:32:19;5.93;;;1.73;;
11797;SDS011;5956;51.428;6.682;2023-05-16T07:34:45;7.53;;;2.10;;
11797;SDS011;5956;51.428;6.682;2023-05-16T07:37:12;5.80;;;2.13;;
11797;SDS011;5956;51.428;6.682;2023-05-16T07:39:40;8.00;;;2.20;;
11797;SDS011;5956;51.428;6.682;2023-05-16T07:42:06;8.07;;;2.17;;
11797;SDS011;5956;51.428;6.682;2023-05-16T07:44:35;12.57;;;2.30;;
11797;SDS011;5956;51.428;6.682;2023-05-16T07:47:01;5.27;;;2.13;;
11797;SDS011;5956;51.428;6.682;2023-05-16T07:49:28;9.37;;;2.57;;
11797;SDS011;5956;51.428;6.682;2023-05-16T07:51:54;4.30;;;1.77;;
11797;SDS011;5956;51.428;6.682;2023-05-16T07:54:20;6.73;;;2.03;;
11797;SDS011;5956;51.428;6.682;2023-05-16T07:56:47;6.57;;;2.13;;
11797;SDS011;5956;51.428;6.682;2023-05-16T07:59:13;6.20;;;1.97;;
11797;SDS011;5956;51.428;6.682;2023-05-16T08:01:41;5.73;;;2.10;;
11797;SDS011;5956;51.428;6.682;2023-05-16T08:04:08;8.27;;;2.17;;
11797;SDS011;5956;51.428;6.682;2023-05-16T08:06:34;7.13;;;2.57;;
11797;SDS011;5956;51.428;6.682;2023-05-16T08:09:01;7.70;;;2.67;;
11797;SDS011;5956;51.428;6.682;2023-05-16T08:11:27;4.10;;;1.90;;
11797;SDS011;5956;51.428;6.682;2023-05-16T08:13:54;10.87;;;3.77;;
11797;SDS011;5956;51.428;6.682;2023-05-16T08:16:20;12.17;;;2.40;;
11797;SDS011;5956;51.428;6.682;2023-05-16T08:18:48;6.43;;;2.33;;
11797;SDS011;5956;51.428;6.682;2023-05-16T08:21:15;7.30;;;2.00;;
11797;SDS011;5956;51.428;6.682;2023-05-16T08:23:41;3.73;;;1.87;;
11797;SDS011;5956;51.428;6.682;2023-05-16T08:26:08;7.97;;;1.90;;
11797;SDS011;5956;51.428;6.682;2023-05-16T08:28:34;6.93;;;2.10;;
11797;SDS011;5956;51.428;6.682;2023-05-16T08:31:01;4.60;;;2.13;;
11797;SDS011;5956;51.428;6.682;2023-05-16T08:33:27;5.13;;;2.00;;
11797;SDS011;5956;51.428;6.682;2023-05-16T08:35:55;8.17;;;2.17;;
11797;SDS011;5956;51.428;6.682;2023-05-16T08:38:22;4.53;;;1.70;;
11797;SDS011;5956;51.428;6.682;2023-05-16T08:40:48;8.97;;;2.13;;
11797;SDS011;5956;51.428;6.682;2023-05-16T08:43:15;6.03;;;2.20;;
11797;SDS011;5956;51.428;6.682;2023-05-16T08:45:41;5.60;;;2.00;;
11797;SDS011;5956;51.428;6.682;2023-05-16T08:48:08;6.53;;;2.03;;
11797;SDS011;5956;51.428;6.682;2023-05-16T08:50:35;7.93;;;2.07;;
11797;SDS011;5956;51.428;6.682;2023-05-16T08:53:04;4.60;;;2.00;;
11797;SDS011;5956;51.428;6.682;2023-05-16T08:55:31;7.50;;;1.70;;
11797;SDS011;5956;51.428;6.682;2023-05-16T08:57:58;4.53;;;1.90;;
11797;SDS011;5956;51.428;6.682;2023-05-16T09:00:25;7.72;;;2.10;;
11797;SDS011;5956;51.428;6.682;2023-05-16T09:02:52;4.50;;;1.88;;
11797;SDS011;5956;51.428;6.682;2023-05-16T09:05:18;3.40;;;1.90;;
11797;SDS011;5956;51.428;6.682;2023-05-16T09:07:45;6.38;;;2.17;;
11797;SDS011;5956;51.428;6.682;2023-05-16T09:10:13;4.32;;;1.70;;
11797;SDS011;5956;51.428;6.682;2023-05-16T09:12:40;4.18;;;2.00;;
11797;SDS011;5956;51.428;6.682;2023-05-16T09:15:08;4.55;;;1.65;;
11797;SDS011;5956;51.428;6.682;2023-05-16T09:17:36;3.10;;;1.67;;
11797;SDS011;5956;51.428;6.682;2023-05-16T09:20:10;3.33;;;1.60;;
11797;SDS011;5956;51.428;6.682;2023-05-16T09:22:37;5.43;;;1.60;;
11797;SDS011;5956;51.428;6.682;2023-05-16T09:25:05;2.83;;;1.80;;
11797;SDS011;5956;51.428;6.682;2023-05-16T09:27:33;4.03;;;1.70;;
11797;SDS011;5956;51.428;6.682;2023-05-16T09:30:00;4.18;;;1.88;;
11797;SDS011;5956;51.428;6.682;2023-05-16T09:32:27;4.65;;;1.42;;
11797;SDS011;5956;51.428;6.682;2023-05-16T09:34:54;4.22;;;1.75;;
11797;SDS011;5956;51.428;6.682;2023-05-16T09:37:22;2.33;;;1.35;;
11797;SDS011;5956;51.428;6.682;2023-05-16T09:39:49;3.42;;;1.63;;
11797;SDS011;5956;51.428;6.682;2023-05-16T09:42:17;4.55;;;1.70;;
11797;SDS011;5956;51.428;6.682;2023-05-16T09:44:47;6.20;;;1.90;;
11797;SDS011;5956;51.428;6.682;2023-05-16T09:47:14;4.40;;;1.83;;
11797;SDS011;5956;51.428;6.682;2023-05-16T09:49:41;6.23;;;1.87;;
11797;SDS011;5956;51.428;6.682;2023-05-16T09:52:09;4.57;;;1.47;;
11797;SDS011;5956;51.428;6.682;2023-05-16T09:54:35;5.38;;;1.90;;
11797;SDS011;5956;51.428;6.682;2023-05-16T09:57:02;4.57;;;2.10;;
11797;SDS011;5956;51.428;6.682;2023-05-16T09:59:29;3.72;;;1.70;;
11797;SDS011;5956;51.428;6.682;2023-05-16T10:01:57;4.88;;;1.98;;
11797;SDS011;5956;51.428;6.682;2023-05-16T10:04:24;5.63;;;1.73;;
11797;SDS011;5956;51.428;6.682;2023-05-16T10:06:51;6.55;;;2.08;;
11797;SDS011;5956;51.428;6.682;2023-05-16T10:09:20;5.50;;;2.13;;
11797;SDS011;5956;51.428;6.682;2023-05-16T10:11:47;4.85;;;2.25;;
11797;SDS011;5956;51.428;6.682;2023-05-16T10:14:15;4.93;;;2.60;;
11797;SDS011;5956;51.428;6.682;2023-05-16T10:16:42;6.72;;;2.20;;
11797;SDS011;5956;51.428;6.682;2023-05-16T10:19:10;7.72;;;2.17;;
11797;SDS011;5956;51.428;6.682;2023-05-16T10:21:37;6.95;;;2.00;;
11797;SDS011;5956;51.428;6.682;2023-05-16T10:24:05;8.02;;;2.60;;
11797;SDS011;5956;51.428;6.682;2023-05-16T10:26:32;5.63;;;1.90;;
11797;SDS011;5956;51.428;6.682;2023-05-16T10:28:59;7.00;;;1.83;;
11797;SDS011;5956;51.428;6.682;2023-05-16T10:31:26;5.33;;;2.10;;
11797;SDS011;5956;51.428;6.682;2023-05-16T10:33:53;5.13;;;1.30;;
11797;SDS011;5956;51.428;6.682;2023-05-16T10:36:22;7.60;;;2.20;;
11797;SDS011;5956;51.428;6.682;2023-05-16T10:38:49;5.77;;;2.10;;
11797;SDS011;5956;51.428;6.682;2023-05-16T10:41:16;3.93;;;1.47;;
11797;SDS011;5956;51.428;6.682;2023-05-16T10:43:43;3.30;;;1.97;;
11797;SDS011;5956;51.428;6.682;2023-05-16T10:46:10;6.65;;;2.03;;
11797;SDS011;5956;51.428;6.682;2023-05-16T10:48:38;3.88;;;1.45;;
11797;SDS011;5956;51.428;6.682;2023-05-16T10:54:03;3.28;;;1.38;;
11797;SDS011;5956;51.428;6.682;2023-05-16T10:56:31;2.90;;;1.30;;
11797;SDS011;5956;51.428;6.682;2023-05-16T10:58:58;6.05;;;1.63;;
11797;SDS011;5956;51.428;6.682;2023-05-16T11:01:26;2.35;;;1.75;;
11797;SDS011;5956;51.428;6.682;2023-05-16T11:04:00;5.00;;;2.08;;
11797;SDS011;5956;51.428;6.682;2023-05-16T11:06:27;3.97;;;1.65;;
11797;SDS011;5956;51.428;6.682;2023-05-16T11:08:57;2.85;;;1.20;;
11797;SDS011;5956;51.428;6.682;2023-05-16T11:11:38;2.00;;;1.25;;
11797;SDS011;5956;51.428;6.682;2023-05-16T11:14:05;3.35;;;1.48;;
11797;SDS011;5956;51.428;6.682;2023-05-16T11:16:32;3.50;;;2.15;;
11797;SDS011;5956;51.428;6.682;2023-05-16T11:19:03;1.42;;;1.15;;
11797;SDS011;5956;51.428;6.682;2023-05-16T11:24:27;2.53;;;1.20;;
11797;SDS011;5956;51.428;6.682;2023-05-16T11:26:55;2.60;;;1.30;;
11797;SDS011;5956;51.428;6.682;2023-05-16T11:29:22;3.03;;;1.10;;
11797;SDS011;5956;51.428;6.682;2023-05-16T11:31:48;2.65;;;1.30;;
11797;SDS011;5956;51.428;6.682;2023-05-16T11:34:15;1.70;;;1.30;;
11797;SDS011;5956;51.428;6.682;2023-05-16T11:36:42;2.95;;;1.23;;
11797;SDS011;5956;51.428;6.682;2023-05-16T11:39:10;3.53;;;1.60;;
11797;SDS011;5956;51.428;6.682;2023-05-16T11:41:37;4.80;;;1.70;;
11797;SDS011;5956;51.428;6.682;2023-05-16T11:44:05;44.35;;;15.25;;
11797;SDS011;5956;51.428;6.682;2023-05-16T11:46:32;14.48;;;5.78;;
11797;SDS011;5956;51.428;6.682;2023-05-16T11:48:58;4.18;;;1.48;;
11797;SDS011;5956;51.428;6.682;2023-05-16T11:51:25;2.80;;;1.38;;
11797;SDS011;5956;51.428;6.682;2023-05-16T11:53:52;2.97;;;1.33;;
11797;SDS011;5956;51.428;6.682;2023-05-16T11:56:18;3.30;;;1.20;;
11797;SDS011;5956;51.428;6.682;2023-05-16T11:58:46;1.88;;;1.20;;
11797;SDS011;5956;51.428;6.682;2023-05-16T12:01:14;2.08;;;1.35;;
11797;SDS011;5956;51.428;6.682;2023-05-16T12:03:41;11.57;;;4.53;;
11797;SDS011;5956;51.428;6.682;2023-05-16T12:06:07;2.63;;;1.30;;
11797;SDS011;5956;51.428;6.682;2023-05-16T12:08:34;2.17;;;1.00;;
11797;SDS011;5956;51.428;6.682;2023-05-16T12:11:01;1.67;;;1.10;;
11797;SDS011;5956;51.428;6.682;2023-05-16T12:13:27;3.28;;;1.30;;
11797;SDS011;5956;51.428;6.682;2023-05-16T12:15:54;2.08;;;1.33;;
11797;SDS011;5956;51.428;6.682;2023-05-16T12:18:22;0.75;;;0.75;;
11797;SDS011;5956;51.428;6.682;2023-05-16T12:20:49;1.52;;;1.00;;
11797;SDS011;5956;51.428;6.682;2023-05-16T12:23:16;5.75;;;2.92;;
11797;SDS011;5956;51.428;6.682;2023-05-16T12:25:44;12.63;;;4.90;;
11797;SDS011;5956;51.428;6.682;2023-05-16T12:28:11;12.30;;;6.25;;
11797;SDS011;5956;51.428;6.682;2023-05-16T12:30:39;10.48;;;4.65;;
11797;SDS011;5956;51.428;6.682;2023-05-16T12:33:06;14.95;;;5.63;;
11797;SDS011;5956;51.428;6.682;2023-05-16T12:35:36;7.40;;;2.65;;
11797;SDS011;5956;51.428;6.682;2023-05-16T12:38:03;6.95;;;2.85;;
11797;SDS011;5956;51.428;6.682;2023-05-16T12:40:31;2.47;;;1.70;;
11797;SDS011;5956;51.428;6.682;2023-05-16T12:42:58;3.78;;;1.42;;
11797;SDS011;5956;51.428;6.682;2023-05-16T12:45:25;7.22;;;2.65;;
11797;SDS011;5956;51.428;6.682;2023-05-16T12:47:52;6.57;;;2.33;;
11797;SDS011;5956;51.428;6.682;2023-05-16T12:50:19;6.78;;;3.60;;
11797;SDS011;5956;51.428;6.682;2023-05-16T12:52:49;9.02;;;3.22;;
11797;SDS011;5956;51.428;6.682;2023-05-16T12:55:15;10.55;;;4.20;;
11797;SDS011;5956;51.428;6.682;2023-05-16T12:57:42;5.93;;;3.78;;
11797;SDS011;5956;51.428;6.682;2023-05-16T13:00:12;7.07;;;3.65;;
11797;SDS011;5956;51.428;6.682;2023-05-16T13:02:39;5.72;;;2.67;;
11797;SDS011;5956;51.428;6.682;2023-05-16T13:05:06;2.03;;;0.90;;
11797;SDS011;5956;51.428;6.682;2023-05-16T13:07:32;2.63;;;1.35;;
11797;SDS011;5956;51.428;6.682;2023-05-16T13:10:00;2.63;;;1.10;;
11797;SDS011;5956;51.428;6.682;2023-05-16T13:12:28;2.10;;;1.08;;
11797;SDS011;5956;51.428;6.682;2023-05-16T13:14:55;2.67;;;1.20;;
11797;SDS011;5956;51.428;6.682;2023-05-16T13:17:21;2.03;;;1.40;;
11797;SDS011;5956;51.428;6.682;2023-05-16T13:19:48;4.93;;;1.70;;
11797;SDS011;5956;51.428;6.682;2023-05-16T13:22:15;2.78;;;1.40;;
11797;SDS011;5956;51.428;6.682;2023-05-16T13:24:42;1.85;;;1.25;;
11797;SDS011;5956;51.428;6.682;2023-05-16T13:27:10;2.72;;;1.30;;
11797;SDS011;5956;51.428;6.682;2023-05-16T13:29:36;2.05;;;1.35;;
11797;SDS011;5956;51.428;6.682;2023-05-16T13:32:03;2.47;;;1.50;;
11797;SDS011;5956;51.428;6.682;2023-05-16T13:34:30;2.58;;;1.30;;
11797;SDS011;5956;51.428;6.682;2023-05-16T13:36:56;2.45;;;1.30;;
11797;SDS011;5956;51.428;6.682;2023-05-16T13:39:23;1.98;;;1.45;;
11797;SDS011;5956;51.428;6.682;2023-05-16T13:41:49;3.83;;;1.42;;
11797;SDS011;5956;51.428;6.682;2023-05-16T13:44:17;1.70;;;1.60;;
11797;SDS011;5956;51.428;6.682;2023-05-16T13:46:44;2.33;;;1.60;;
11797;SDS011;5956;51.428;6.682;2023-05-16T13:49:11;1.83;;;1.45;;
11797;SDS011;5956;51.428;6.682;2023-05-16T13:51:37;4.05;;;1.95;;
11797;SDS011;5956;51.428;6.682;2023-05-16T13:54:04;2.58;;;1.98;;
11797;SDS011;5956;51.428;6.682;2023-05-16T13:56:30;3.33;;;1.67;;
11797;SDS011;5956;51.428;6.682;2023-05-16T13:58:57;4.18;;;2.42;;
11797;SDS011;5956;51.428;6.682;2023-05-16T14:01:25;3.53;;;2.05;;
11797;SDS011;5956;51.428;6.682;2023-05-16T14:03:52;3.40;;;2.00;;
11797;SDS011;5956;51.428;6.682;2023-05-16T14:06:18;2.53;;;1.83;;
11797;SDS011;5956;51.428;6.682;2023-05-16T14:08:45;2.53;;;1.90;;
11797;SDS011;5956;51.428;6.682;2023-05-16T14:11:12;2.80;;;1.83;;
11797;SDS011;5956;51.428;6.682;2023-05-16T14:13:38;3.20;;;1.70;;
11797;SDS011;5956;51.428;6.682;2023-05-16T14:16:05;4.13;;;2.05;;
11797;SDS011;5956;51.428;6.682;2023-05-16T14:18:33;2.63;;;1.90;;
11797;SDS011;5956;51.428;6.682;2023-05-16T14:20:59;3.42;;;2.28;;
11797;SDS011;5956;51.428;6.682;2023-05-16T14:23:26;4.20;;;1.83;;
11797;SDS011;5956;51.428;6.682;2023-05-16T14:25:53;1.85;;;1.70;;
11797;SDS011;5956;51.428;6.682;2023-05-16T14:28:20;4.18;;;2.20;;
11797;SDS011;5956;51.428;6.682;2023-05-16T14:30:46;5.35;;;3.58;;
11797;SDS011;5956;51.428;6.682;2023-05-16T14:33:13;2.80;;;1.80;;
11797;SDS011;5956;51.428;6.682;2023-05-16T14:35:41;3.42;;;2.15;;
11797;SDS011;5956;51.428;6.682;2023-05-16T14:38:08;2.60;;;2.08;;
11797;SDS011;5956;51.428;6.682;2023-05-16T14:40:34;3.10;;;1.80;;
11797;SDS011;5956;51.428;6.682;2023-05-16T14:43:01;3.45;;;1.90;;
11797;SDS011;5956;51.428;6.682;2023-05-16T14:45:29;5.53;;;2.15;;
11797;SDS011;5956;51.428;6.682;2023-05-16T14:47:55;2.58;;;1.70;;
11797;SDS011;5956;51.428;6.682;2023-05-16T14:50:22;5.50;;;2.30;;
11797;SDS011;5956;51.428;6.682;2023-05-16T14:52:50;6.15;;;2.92;;
11797;SDS011;5956;51.428;6.682;2023-05-16T14:55:17;3.15;;;2.33;;
11797;SDS011;5956;51.428;6.682;2023-05-16T14:57:43;9.07;;;6.43;;
11797;SDS011;5956;51.428;6.682;2023-05-16T15:00:10;3.25;;;1.90;;
11797;SDS011;5956;51.428;6.682;2023-05-16T15:02:37;2.60;;;2.00;;